Time;durP1;ratioP1;P1;durP2;ratioP2;P2;SDS_P1;SDS_P2;PMS_P1;PMS_P2;Temp;Humidity;BMP_temperature;BMP_pressure;BME280_temperature;BME280_humidity;BME280_pressure;Samples;Min_cycle;Max_cycle;Signal;HPM_P1;HPM_P2
2023/04/03 00:01:30;;;;;;;3.13;0.63;;;1.80;99.90;;;;;;5126950;27;20130;-81
2023/04/03 00:03:56;;;;;;;1.77;0.68;;;1.80;99.90;;;;;;5126073;27;20062;-82
2023/04/03 00:06:23;;;;;;;2.85;0.55;;;1.80;99.90;;;;;;5128004;27;20038;-82
2023/04/03 00:08:49;;;;;;;1.02;0.43;;;1.90;99.90;;;;;;5106670;27;20066;-82
2023/04/03 00:11:15;;;;;;;4.03;0.63;;;1.90;99.90;;;;;;5109315;28;20051;-81
2023/04/03 00:13:41;;;;;;;1.35;0.52;;;2.90;99.90;;;;;;5090519;28;20047;-81
2023/04/03 00:16:09;;;;;;;4.03;0.73;;;1.90;99.90;;;;;;5108552;28;20050;-81
2023/04/03 00:18:36;;;;;;;1.35;0.50;;;3.40;99.90;;;;;;5108671;28;20093;-81
2023/04/03 00:21:02;;;;;;;6.63;0.70;;;1.90;99.90;;;;;;5125633;28;20497;-81
2023/04/03 00:23:28;;;;;;;2.42;0.57;;;1.90;99.90;;;;;;5127956;28;20050;-81
2023/04/03 00:25:55;;;;;;;2.28;0.50;;;1.90;99.90;;;;;;5110324;27;20478;-81
2023/04/03 00:28:20;;;;;;;1.85;0.40;;;1.90;99.90;;;;;;5132181;27;20485;-81
2023/04/03 00:30:48;;;;;;;2.65;0.50;;;1.90;99.90;;;;;;5111526;27;20201;-81
2023/04/03 00:33:14;;;;;;;2.13;0.57;;;3.20;99.90;;;;;;5130970;27;20047;-82
2023/04/03 00:35:40;;;;;;;3.58;0.80;;;1.90;99.90;;;;;;5112953;27;20065;-81
2023/04/03 00:38:06;;;;;;;2.92;0.80;;;3.20;99.90;;;;;;5094225;27;20480;-81
2023/04/03 00:40:41;;;;;;;4.18;0.57;;;1.80;99.90;;;;;;5095960;27;20035;-81
2023/04/03 00:43:22;;;;;;;3.10;0.70;;;1.80;99.90;;;;;;5110943;27;20413;-81
2023/04/03 00:45:54;;;;;;;4.95;0.50;;;1.80;99.90;;;;;;5113095;27;20051;-80
2023/04/03 00:48:28;;;;;;;2.30;0.85;;;2.10;99.90;;;;;;5095130;27;20081;-80
2023/04/03 00:50:54;;;;;;;2.35;0.52;;;1.70;99.90;;;;;;5129693;27;20074;-81
2023/04/03 00:53:25;;;;;;;3.40;0.60;;;2.70;99.90;;;;;;5095783;27;20063;-81
2023/04/03 00:55:53;;;;;;;6.18;1.73;;;1.70;99.90;;;;;;5093156;27;20126;-81
2023/04/03 00:58:21;;;;;;;3.03;0.70;;;1.60;99.90;;;;;;5131720;27;20051;-81
2023/04/03 01:00:56;;;;;;;0.73;0.45;;;1.60;99.90;;;;;;5093543;27;20054;-81
2023/04/03 01:03:22;;;;;;;2.92;0.60;;;1.60;99.90;;;;;;5111506;27;20122;-81
2023/04/03 01:05:47;;;;;;;4.55;2.72;;;1.60;99.90;;;;;;5112700;27;20036;-81
2023/04/03 01:08:13;;;;;;;3.15;0.60;;;1.60;99.90;;;;;;5129173;27;20036;-81
2023/04/03 01:10:39;;;;;;;3.78;1.00;;;1.60;99.90;;;;;;5096129;27;20086;-81
2023/04/03 01:13:23;;;;;;;4.70;0.82;;;1.60;99.90;;;;;;5109727;27;20043;-80
2023/04/03 01:15:49;;;;;;;3.65;0.73;;;1.60;99.90;;;;;;5112353;27;20168;-81
2023/04/03 01:18:15;;;;;;;5.05;0.88;;;1.60;99.90;;;;;;5111208;27;20071;-81
2023/04/03 01:20:55;;;;;;;3.25;0.77;;;1.60;99.90;;;;;;5110914;27;20039;-80
2023/04/03 01:23:50;;;;;;;2.05;0.80;;;2.80;99.90;;;;;;5131055;27;20420;-81
2023/04/03 01:26:16;;;;;;;3.17;0.93;;;1.60;99.90;;;;;;5128641;27;20078;-80
2023/04/03 01:28:42;;;;;;;4.50;1.13;;;1.70;99.90;;;;;;5112036;27;20105;-80
2023/04/03 01:31:35;;;;;;;5.38;1.30;;;2.90;99.90;;;;;;5111032;27;20439;-80
2023/04/03 01:34:02;;;;;;;9.47;5.50;;;1.70;99.90;;;;;;5092986;27;20051;-81
2023/04/03 01:36:30;;;;;;;6.13;1.13;;;1.60;99.90;;;;;;5111036;27;20325;-80
2023/04/03 01:38:57;;;;;;;5.05;0.70;;;2.70;99.90;;;;;;5109319;27;20051;-81
2023/04/03 01:41:22;;;;;;;4.20;0.90;;;2.40;99.90;;;;;;5111679;27;20039;-82
2023/04/03 01:43:49;;;;;;;3.55;0.82;;;1.60;99.90;;;;;;5110438;27;20515;-82
2023/04/03 01:46:16;;;;;;;6.57;1.33;;;1.80;99.90;;;;;;5111000;27;20131;-81
2023/04/03 01:48:42;;;;;;;5.35;1.00;;;1.50;99.90;;;;;;5111496;27;20042;-81
2023/04/03 01:51:08;;;;;;;2.42;0.77;;;1.60;99.90;;;;;;5128367;27;20529;-81
2023/04/03 01:53:34;;;;;;;3.83;1.00;;;1.50;99.90;;;;;;5112204;27;20054;-81
2023/04/03 01:55:59;;;;;;;6.55;1.02;;;1.50;99.90;;;;;;5127828;27;20389;-82
2023/04/03 01:58:25;;;;;;;7.72;1.30;;;1.50;99.90;;;;;;5111517;27;20092;-81
2023/04/03 02:00:52;;;;;;;7.00;1.15;;;1.50;99.90;;;;;;5092876;27;20047;-82
2023/04/03 02:03:18;;;;;;;1.35;0.65;;;1.50;99.90;;;;;;5110344;27;20047;-81
2023/04/03 02:05:45;;;;;;;4.05;0.93;;;1.50;99.90;;;;;;5111398;27;20066;-81
2023/04/03 02:08:11;;;;;;;4.20;1.33;;;1.70;99.90;;;;;;5110383;27;20501;-81
2023/04/03 02:10:36;;;;;;;10.30;1.00;;;1.40;99.90;;;;;;5111431;27;20118;-81
2023/04/03 02:13:02;;;;;;;4.03;0.93;;;1.40;99.90;;;;;;5108671;27;20113;-81
2023/04/03 02:15:28;;;;;;;4.18;0.90;;;1.40;99.90;;;;;;5130234;27;20047;-81
2023/04/03 02:17:54;;;;;;;3.60;1.25;;;1.30;99.90;;;;;;5092548;27;20051;-81
2023/04/03 02:20:20;;;;;;;2.63;0.77;;;2.50;99.90;;;;;;5110616;27;20525;-80
2023/04/03 02:22:46;;;;;;;5.10;1.65;;;2.70;99.90;;;;;;5110665;27;20051;-81
2023/04/03 02:25:12;;;;;;;5.80;0.80;;;1.30;99.90;;;;;;5109285;27;20520;-81
2023/04/03 02:27:38;;;;;;;5.78;1.10;;;1.20;99.90;;;;;;5111278;27;20051;-81
2023/04/03 02:30:05;;;;;;;5.35;1.08;;;1.20;99.90;;;;;;5108852;27;20050;-81
2023/04/03 02:32:32;;;;;;;5.13;1.35;;;1.20;99.90;;;;;;5129589;27;20047;-81
2023/04/03 02:34:58;;;;;;;4.57;0.90;;;2.30;99.90;;;;;;5109016;27;20039;-81
2023/04/03 02:37:24;;;;;;;2.45;0.93;;;2.30;99.90;;;;;;5110295;27;20126;-81
2023/04/03 02:39:50;;;;;;;4.68;0.77;;;1.90;99.90;;;;;;5128475;27;20473;-82
2023/04/03 02:42:15;;;;;;;6.20;2.17;;;1.00;99.90;;;;;;5092172;27;20127;-82
2023/04/03 02:44:41;;;;;;;8.70;1.50;;;1.00;99.90;;;;;;5110404;27;20408;-82
2023/04/03 02:47:07;;;;;;;3.25;0.82;;;1.00;99.90;;;;;;5108189;27;20054;-82
2023/04/03 02:49:33;;;;;;;4.65;0.98;;;0.90;99.90;;;;;;5110843;27;20043;-81
2023/04/03 02:51:58;;;;;;;6.53;1.27;;;0.90;99.90;;;;;;5108992;27;20043;-82
2023/04/03 02:54:27;;;;;;;8.93;1.50;;;2.20;99.90;;;;;;5093425;27;20516;-82
2023/04/03 02:56:53;;;;;;;3.90;1.00;;;1.30;99.90;;;;;;5110614;27;20050;-82
2023/04/03 02:59:19;;;;;;;6.15;1.17;;;2.20;99.90;;;;;;5108671;27;20516;-82
2023/04/03 03:01:45;;;;;;;5.05;0.82;;;0.70;99.90;;;;;;5110008;27;20100;-82
2023/04/03 03:04:11;;;;;;;4.72;1.30;;;0.70;99.90;;;;;;5108200;27;20074;-82
2023/04/03 03:06:37;;;;;;;6.78;1.23;;;0.60;99.90;;;;;;5110539;27;20498;-82
2023/04/03 03:09:03;;;;;;;4.90;1.15;;;0.60;99.90;;;;;;5108363;27;20126;-82
2023/04/03 03:11:30;;;;;;;2.33;0.95;;;1.30;99.90;;;;;;5128794;27;20047;-82
2023/04/03 03:13:55;;;;;;;4.65;1.20;;;0.60;99.90;;;;;;5109451;27;20477;-82
2023/04/03 03:16:21;;;;;;;4.85;1.08;;;1.20;99.90;;;;;;5108718;27;20082;-83
2023/04/03 03:18:47;;;;;;;2.03;0.75;;;1.80;99.90;;;;;;5109643;27;20096;-83
2023/04/03 03:21:13;;;;;;;6.45;1.05;;;0.40;99.90;;;;;;5091311;27;20050;-82
2023/04/03 03:23:40;;;;;;;5.20;1.27;;;0.30;99.90;;;;;;5110235;27;20575;-83
2023/04/03 03:26:08;;;;;;;6.75;1.30;;;0.20;99.90;;;;;;5126568;27;20443;-82
2023/04/03 03:28:36;;;;;;;2.50;0.82;;;1.40;99.90;;;;;;5109382;27;20099;-83
2023/04/03 03:31:02;;;;;;;4.25;1.23;;;0.40;99.90;;;;;;5075647;27;20125;-83
2023/04/03 03:33:28;;;;;;;4.72;1.25;;;0.10;99.90;;;;;;5091395;27;20043;-83
2023/04/03 03:35:54;;;;;;;2.83;1.10;;;0.00;99.90;;;;;;5092646;27;20045;-84
2023/04/03 03:38:20;;;;;;;4.15;0.85;;;0.00;99.90;;;;;;5107252;27;20493;-84
2023/04/03 03:40:50;;;;;;;4.95;1.40;;;0.00;99.90;;;;;;5110312;27;20512;-84
2023/04/03 03:43:16;;;;;;;2.53;1.27;;;-0.10;99.90;;;;;;5090526;27;20047;-83
2023/04/03 03:45:42;;;;;;;6.55;1.00;;;-0.10;99.90;;;;;;5109474;27;20046;-83
2023/04/03 03:48:08;;;;;;;5.57;1.20;;;1.00;99.90;;;;;;5108287;27;20050;-82
2023/04/03 03:50:34;;;;;;;5.18;1.00;;;-0.10;99.90;;;;;;5126999;27;20127;-82
2023/04/03 03:53:00;;;;;;;6.25;1.45;;;-0.10;99.90;;;;;;5108916;27;20130;-82
2023/04/03 03:55:25;;;;;;;6.47;1.90;;;-0.10;99.90;;;;;;5107285;27;20051;-83
2023/04/03 03:57:51;;;;;;;5.53;1.35;;;0.00;99.90;;;;;;5109525;27;20051;-84
2023/04/03 04:00:17;;;;;;;5.72;1.17;;;-0.10;99.90;;;;;;5106632;27;20043;-84
2023/04/03 04:02:43;;;;;;;2.05;1.00;;;-0.10;99.90;;;;;;5092771;27;20050;-84
2023/04/03 04:05:09;;;;;;;9.00;1.63;;;-0.10;99.90;;;;;;5108502;27;20054;-84
2023/04/03 04:07:35;;;;;;;9.00;2.35;;;-0.10;99.90;;;;;;5108455;27;20405;-85
2023/04/03 04:10:01;;;;;;;7.82;1.40;;;-0.10;99.90;;;;;;5092031;27;20039;-85
2023/04/03 04:12:27;;;;;;;7.60;2.45;;;-0.10;99.90;;;;;;5107271;28;20084;-83
2023/04/03 04:14:52;;;;;;;6.88;1.52;;;-0.10;99.90;;;;;;5109231;28;20374;-83
2023/04/03 04:17:18;;;;;;;4.97;1.75;;;-0.10;99.90;;;;;;5125156;28;20127;-82
2023/04/03 04:19:44;;;;;;;3.83;1.77;;;-0.10;99.90;;;;;;5092593;28;20071;-81
2023/04/03 04:22:10;;;;;;;4.88;1.27;;;-0.10;99.90;;;;;;5091064;28;20043;-81
2023/04/03 04:24:35;;;;;;;3.65;1.33;;;0.10;99.90;;;;;;5108643;28;20439;-81
2023/04/03 04:27:01;;;;;;;7.95;1.35;;;-0.10;99.90;;;;;;5108177;28;20451;-83
2023/04/03 04:29:27;;;;;;;6.78;1.13;;;0.30;99.90;;;;;;5073950;28;20051;-82
2023/04/03 04:31:52;;;;;;;3.05;1.50;;;-0.20;99.90;;;;;;5091970;28;20036;-81
2023/04/03 04:34:18;;;;;;;6.03;1.38;;;0.90;99.90;;;;;;5106481;28;20069;-82
2023/04/03 04:36:44;;;;;;;9.57;1.65;;;-0.20;99.90;;;;;;5109430;28;20043;-82
2023/04/03 04:39:10;;;;;;;5.20;1.20;;;-0.20;99.90;;;;;;5107152;28;20047;-83
2023/04/03 04:41:35;;;;;;;6.28;1.25;;;-0.20;99.90;;;;;;5108023;28;20354;-82
2023/04/03 04:44:01;;;;;;;8.25;1.80;;;1.20;99.90;;;;;;5107932;28;20103;-80
2023/04/03 04:46:27;;;;;;;8.57;1.80;;;-0.20;99.90;;;;;;5125704;28;20050;-83
2023/04/03 04:48:52;;;;;;;8.50;1.73;;;1.00;99.90;;;;;;5108861;28;20047;-82
2023/04/03 04:51:18;;;;;;;10.93;2.15;;;-0.20;99.90;;;;;;5106491;28;20043;-81
2023/04/03 04:53:44;;;;;;;3.83;1.48;;;-0.20;99.90;;;;;;5109329;28;20043;-83
2023/04/03 04:56:10;;;;;;;2.53;1.63;;;0.50;99.90;;;;;;5106847;28;20061;-82
2023/04/03 04:58:36;;;;;;;7.60;2.15;;;-0.20;99.90;;;;;;5091278;28;20047;-79
2023/04/03 05:01:08;;;;;;;4.25;1.40;;;-0.20;99.90;;;;;;5125883;27;20078;-82
2023/04/03 05:03:34;;;;;;;4.95;1.58;;;0.90;99.90;;;;;;5126030;28;20057;-81
2023/04/03 05:05:59;;;;;;;5.63;1.60;;;-0.20;99.90;;;;;;5109147;28;20066;-81
2023/04/03 05:08:26;;;;;;;4.28;1.92;;;-0.20;99.90;;;;;;5106355;28;20493;-82
2023/04/03 05:10:52;;;;;;;7.35;2.00;;;-0.20;99.90;;;;;;5129624;27;20031;-81
2023/04/03 05:13:19;;;;;;;8.02;2.20;;;-0.20;99.90;;;;;;5129558;27;20035;-84
2023/04/03 05:15:45;;;;;;;8.27;2.55;;;-0.30;99.90;;;;;;5112458;27;20034;-81
2023/04/03 05:18:11;;;;;;;8.07;2.60;;;-0.30;99.90;;;;;;5130172;27;20115;-80
2023/04/03 05:20:37;;;;;;;4.82;2.40;;;-0.30;99.90;;;;;;5129389;27;20478;-82
2023/04/03 05:23:02;;;;;;;8.70;2.40;;;0.10;99.90;;;;;;5130370;27;20043;-82
2023/04/03 05:25:29;;;;;;;6.18;2.03;;;-0.30;99.90;;;;;;5128969;27;20035;-82
2023/04/03 05:27:55;;;;;;;4.25;2.00;;;-0.30;99.90;;;;;;5130710;27;20073;-83
2023/04/03 05:30:20;;;;;;;6.05;2.55;;;-0.30;99.90;;;;;;5109836;27;20115;-82
2023/04/03 05:32:46;;;;;;;5.47;2.45;;;-0.30;99.90;;;;;;5111978;27;20546;-83
2023/04/03 05:35:12;;;;;;;6.03;2.30;;;-0.30;99.90;;;;;;5129498;27;20035;-82
2023/04/03 05:37:38;;;;;;;6.72;2.67;;;-0.30;99.90;;;;;;5093708;27;20092;-83
2023/04/03 05:40:05;;;;;;;12.57;4.10;;;-0.30;99.90;;;;;;5094456;27;20110;-82
2023/04/03 05:42:31;;;;;;;9.38;3.15;;;-0.30;99.90;;;;;;5092921;27;20047;-83
2023/04/03 05:44:57;;;;;;;9.15;2.78;;;-0.10;99.90;;;;;;5130867;27;20139;-83
2023/04/03 05:47:23;;;;;;;8.52;2.30;;;-0.20;99.90;;;;;;5109716;27;20398;-84
2023/04/03 05:49:49;;;;;;;15.18;2.65;;;-0.20;99.90;;;;;;5094860;27;20080;-82
2023/04/03 05:52:26;;;;;;;7.82;3.42;;;-0.20;99.90;;;;;;5110672;27;20075;-83
2023/04/03 05:54:52;;;;;;;9.15;2.28;;;0.20;99.90;;;;;;5110153;27;20462;-83
2023/04/03 05:57:18;;;;;;;8.85;2.10;;;-0.10;99.90;;;;;;5129821;27;20039;-83
2023/04/03 05:59:45;;;;;;;9.57;2.17;;;-0.10;99.90;;;;;;5127656;27;20078;-83
2023/04/03 06:02:17;;;;;;;11.95;2.05;;;0.00;99.90;;;;;;5111373;27;20047;-84
2023/04/03 06:04:44;;;;;;;7.68;1.95;;;1.00;99.90;;;;;;5128088;27;20051;-81
2023/04/03 06:07:16;;;;;;;17.10;2.08;;;0.10;99.90;;;;;;5129410;27;20053;-82
2023/04/03 06:09:42;;;;;;;8.38;2.05;;;1.50;99.90;;;;;;5129208;27;20394;-82
2023/04/03 06:12:09;;;;;;;6.97;2.05;;;0.20;99.90;;;;;;5128151;27;20067;-81
2023/04/03 06:14:35;;;;;;;7.30;2.00;;;1.10;99.90;;;;;;5129795;27;20043;-81
2023/04/03 06:17:01;;;;;;;4.95;1.60;;;0.40;99.90;;;;;;5109021;27;20436;-80
2023/04/03 06:19:27;;;;;;;7.35;1.92;;;1.90;99.90;;;;;;5111216;27;20043;-81
2023/04/03 06:21:53;;;;;;;4.50;1.75;;;0.60;99.90;;;;;;5091539;27;20141;-81
2023/04/03 06:24:21;;;;;;;10.05;2.17;;;0.70;99.90;;;;;;5128979;27;20130;-81
2023/04/03 06:26:48;;;;;;;9.90;2.33;;;0.70;99.90;;;;;;5128633;27;20100;-81
2023/04/03 06:29:14;;;;;;;9.82;2.40;;;1.40;99.90;;;;;;5109384;27;20501;-81
2023/04/03 06:31:40;;;;;;;6.93;2.20;;;1.80;99.90;;;;;;5094054;27;20076;-81
2023/04/03 06:34:07;;;;;;;4.70;1.50;;;0.90;99.90;;;;;;5109038;27;20070;-80
2023/04/03 06:36:33;;;;;;;4.90;1.73;;;1.10;99.90;;;;;;5110641;27;20093;-81
2023/04/03 06:38:59;;;;;;;7.93;2.35;;;1.10;99.90;;;;;;5108380;27;20042;-81
2023/04/03 06:41:26;;;;;;;5.65;1.83;;;1.20;99.90;;;;;;5110354;27;20103;-81
2023/04/03 06:43:51;;;;;;;4.40;1.95;;;2.70;99.90;;;;;;5109877;27;20057;-81
2023/04/03 06:46:21;;;;;;;11.38;2.00;;;1.40;99.90;;;;;;5127899;27;20554;-82
2023/04/03 06:48:47;;;;;;;10.13;3.05;;;2.70;99.90;;;;;;5110026;27;20043;-82
2023/04/03 06:51:18;;;;;;;6.63;1.80;;;1.60;99.90;;;;;;5127019;27;20140;-82
2023/04/03 06:53:44;;;;;;;6.47;1.52;;;1.70;99.90;;;;;;5110904;27;20050;-82
2023/04/03 06:56:10;;;;;;;9.00;2.25;;;1.80;99.90;;;;;;5108511;27;20055;-82
2023/04/03 06:58:35;;;;;;;6.72;1.95;;;1.90;99.90;;;;;;5092763;27;20035;-82
2023/04/03 07:01:01;;;;;;;6.13;1.70;;;2.00;99.90;;;;;;5110125;27;20046;-89
2023/04/03 07:03:27;;;;;;;10.95;3.80;;;3.40;99.90;;;;;;5094951;27;20096;-85
2023/04/03 07:05:53;;;;;;;4.00;2.38;;;3.20;99.90;;;;;;5076159;27;20039;-83
2023/04/03 07:08:18;;;;;;;3.95;1.70;;;2.30;99.90;;;;;;5108731;27;20134;-82
2023/04/03 07:10:44;;;;;;;4.82;1.92;;;3.70;99.90;;;;;;5110356;27;20040;-81
2023/04/03 07:13:10;;;;;;;6.60;1.67;;;2.50;99.90;;;;;;5126539;27;20039;-83
2023/04/03 07:15:36;;;;;;;5.97;2.17;;;2.70;99.90;;;;;;5092926;27;20035;-81
2023/04/03 07:18:02;;;;;;;8.60;3.42;;;2.70;99.90;;;;;;5127195;27;20050;-80
2023/04/03 07:20:28;;;;;;;9.18;1.92;;;2.80;99.90;;;;;;5127290;27;20115;-80
2023/04/03 07:22:54;;;;;;;7.00;2.08;;;2.90;99.90;;;;;;5127673;27;20565;-79
2023/04/03 07:25:19;;;;;;;8.25;1.85;;;4.20;99.90;;;;;;5107622;27;20047;-79
2023/04/03 07:27:45;;;;;;;10.27;2.60;;;3.20;99.90;;;;;;5109947;27;20046;-79
2023/04/03 07:30:13;;;;;;;11.35;2.00;;;3.30;99.90;;;;;;5126237;27;20050;-79
2023/04/03 07:32:39;;;;;;;5.65;1.52;;;3.40;99.90;;;;;;5109598;27;20050;-79
2023/04/03 07:35:05;;;;;;;9.90;1.88;;;3.50;99.90;;;;;;5107789;27;20065;-79
2023/04/03 07:37:32;;;;;;;5.10;1.63;;;3.60;99.90;;;;;;5126782;27;20045;-79
2023/04/03 07:39:58;;;;;;;7.88;1.58;;;3.70;99.90;;;;;;5127366;27;20051;-79
2023/04/03 07:42:27;;;;;;;4.60;1.70;;;4.40;99.90;;;;;;5107606;27;20043;-79
2023/04/03 07:44:53;;;;;;;7.75;1.60;;;3.90;99.90;;;;;;5127552;27;20053;-79
2023/04/03 07:47:20;;;;;;;4.20;1.52;;;4.00;99.90;;;;;;5107202;27;20047;-79
2023/04/03 07:49:46;;;;;;;5.82;1.25;;;4.00;99.90;;;;;;5109461;27;20047;-79
2023/04/03 07:52:14;;;;;;;9.20;1.80;;;5.30;99.90;;;;;;5126734;27;20469;-79
2023/04/03 07:54:40;;;;;;;4.95;1.58;;;4.20;99.90;;;;;;5108139;27;20489;-79
2023/04/03 07:57:06;;;;;;;6.82;1.85;;;4.30;99.90;;;;;;5126975;27;20043;-79
2023/04/03 07:59:32;;;;;;;13.65;1.70;;;4.40;99.90;;;;;;5126242;27;20450;-79
2023/04/03 08:01:58;;;;;;;9.45;1.45;;;4.50;99.90;;;;;;5127714;27;20054;-80
2023/04/03 08:04:23;;;;;;;3.47;1.10;;;4.50;99.90;;;;;;5125515;27;20123;-79
2023/04/03 08:06:49;;;;;;;5.05;1.50;;;4.60;99.90;;;;;;5127757;27;20043;-79
2023/04/03 08:09:16;;;;;;;10.77;1.88;;;4.70;99.90;;;;;;5108299;27;20043;-79
2023/04/03 08:11:42;;;;;;;4.20;2.08;;;4.70;99.90;;;;;;5107902;27;20051;-79
2023/04/03 08:14:07;;;;;;;3.83;2.28;;;4.80;99.90;;;;;;5108570;28;20091;-79
2023/04/03 08:16:33;;;;;;;3.28;1.17;;;5.30;99.90;;;;;;5125974;27;20043;-79
2023/04/03 08:18:59;;;;;;;7.95;1.48;;;4.90;99.90;;;;;;5127788;28;20042;-79
2023/04/03 08:21:25;;;;;;;3.85;1.10;;;5.90;99.90;;;;;;5125268;28;20423;-80
2023/04/03 08:23:51;;;;;;;9.68;1.55;;;5.20;99.90;;;;;;5127459;28;20506;-79
2023/04/03 08:26:20;;;;;;;7.55;0.95;;;5.30;99.90;;;;;;5126152;28;20045;-78
2023/04/03 08:28:46;;;;;;;6.65;1.63;;;5.40;99.90;;;;;;5126679;28;20035;-78
2023/04/03 08:31:16;;;;;;;4.53;1.70;;;5.50;99.90;;;;;;5126604;28;20112;-78
2023/04/03 08:33:42;;;;;;;5.28;1.30;;;6.20;99.90;;;;;;5125758;28;20490;-79
2023/04/03 08:36:22;;;;;;;7.30;2.30;;;6.60;99.90;;;;;;5127397;27;20039;-80
2023/04/03 08:38:49;;;;;;;8.18;1.35;;;5.80;99.90;;;;;;5106839;28;20051;-78
2023/04/03 08:41:23;;;;;;;4.18;1.23;;;5.90;99.90;;;;;;5108404;28;20043;-79
2023/04/03 08:44:16;;;;;;;2.95;0.90;;;6.70;99.90;;;;;;5108176;28;20039;-78
2023/04/03 08:47:02;;;;;;;4.95;1.65;;;6.10;99.90;;;;;;5110068;27;20049;-79
2023/04/03 08:49:37;;;;;;;4.95;1.65;;;6.20;99.90;;;;;;5131681;27;20039;-81
2023/04/03 08:52:20;;;;;;;8.02;1.67;;;6.30;99.90;;;;;;5094736;27;20391;-78
2023/04/03 08:54:55;;;;;;;7.85;2.97;;;6.50;99.90;;;;;;5130372;27;20122;-79
2023/04/03 08:57:36;;;;;;;6.22;2.10;;;6.60;99.90;;;;;;5130681;27;20042;-78
2023/04/03 09:00:16;;;;;;;4.97;1.20;;;6.70;99.90;;;;;;5110484;27;20477;-78
2023/04/03 09:02:54;;;;;;;2.30;0.68;;;6.80;99.90;;;;;;5130346;27;20055;-78
2023/04/03 09:05:50;;;;;;;5.07;0.80;;;6.90;99.90;;;;;;5094869;27;20103;-78
2023/04/03 09:08:28;;;;;;;5.57;1.10;;;7.00;99.90;;;;;;5093686;27;20445;-78
2023/04/03 09:11:21;;;;;;;5.07;0.73;;;7.10;99.90;;;;;;5131868;27;20397;-78
2023/04/03 09:13:47;;;;;;;7.30;1.20;;;7.30;99.90;;;;;;5111972;27;20293;-79
2023/04/03 09:16:37;;;;;;;5.63;0.80;;;8.30;99.90;;;;;;5094042;27;20723;-78
2023/04/03 09:19:38;;;;;;;4.22;0.77;;;7.50;99.90;;;;;;5112744;27;20043;-79
2023/04/03 09:22:17;;;;;;;4.72;0.57;;;7.70;99.90;;;;;;5105529;27;20047;-78
2023/04/03 09:24:58;;;;;;;6.57;1.20;;;8.20;99.90;;;;;;5111583;27;20102;-79
2023/04/03 09:27:24;;;;;;;3.72;0.88;;;8.10;99.90;;;;;;5112071;27;20043;-78
2023/04/03 09:29:57;;;;;;;3.17;0.90;;;8.20;99.90;;;;;;5109837;27;20054;-78
2023/04/03 09:32:29;;;;;;;2.80;0.82;;;8.40;99.90;;;;;;5131025;27;20421;-78
2023/04/03 09:34:58;;;;;;;4.60;0.85;;;8.60;99.90;;;;;;5110304;27;20438;-78
2023/04/03 09:37:45;;;;;;;6.85;0.93;;;8.60;99.90;;;;;;5111044;27;20054;-85
2023/04/03 09:40:26;;;;;;;3.22;0.77;;;8.70;99.90;;;;;;5111825;27;20042;-79
2023/04/03 09:43:01;;;;;;;2.95;0.65;;;8.70;99.30;;;;;;5128121;27;20535;-80
2023/04/03 09:45:35;;;;;;;3.13;0.60;;;8.80;98.90;;;;;;5111990;27;20147;-78
2023/04/03 09:48:18;;;;;;;3.30;0.60;;;8.80;97.60;;;;;;5110412;27;20112;-79
2023/04/03 09:50:50;;;;;;;2.22;0.75;;;8.90;97.30;;;;;;5109920;27;20051;-79
2023/04/03 09:53:37;;;;;;;2.05;0.75;;;9.50;98.00;;;;;;5111579;27;20558;-79
2023/04/03 09:56:21;;;;;;;3.17;0.70;;;9.20;96.50;;;;;;5109454;27;20039;-79
2023/04/03 09:59:03;;;;;;;3.70;0.90;;;9.40;97.00;;;;;;5109778;27;20047;-79
2023/04/03 10:01:32;;;;;;;2.40;0.90;;;9.50;94.20;;;;;;5129490;27;20062;-79
2023/04/03 10:04:07;;;;;;;5.43;0.82;;;9.60;94.70;;;;;;5109611;27;20128;-79
2023/04/03 10:06:37;;;;;;;3.97;0.45;;;9.60;93.40;;;;;;5111457;27;20051;-79
2023/04/03 10:09:13;;;;;;;1.02;0.60;;;9.80;93.90;;;;;;5109525;27;20058;-79
2023/04/03 10:11:56;;;;;;;4.00;0.63;;;9.90;93.00;;;;;;5110215;27;20043;-78
2023/04/03 10:14:22;;;;;;;1.77;0.52;;;10.00;92.70;;;;;;5110966;27;20402;-80
2023/04/03 10:17:03;;;;;;;6.55;0.90;;;10.20;93.40;;;;;;5092310;27;20047;-80
2023/04/03 10:20:16;;;;;;;2.78;0.80;;;10.20;90.10;;;;;;5111281;27;20047;-79
2023/04/03 10:22:48;;;;;;;1.67;0.38;;;10.20;88.60;;;;;;5105724;27;20165;-80
2023/04/03 10:25:40;;;;;;;1.75;0.60;;;10.20;91.10;;;;;;5109241;27;20497;-79
2023/04/03 10:28:30;;;;;;;2.92;0.73;;;10.30;90.90;;;;;;5110966;27;20442;-78
2023/04/03 10:31:19;;;;;;;4.90;1.10;;;10.50;90.70;;;;;;5109973;27;20047;-78
2023/04/03 10:34:04;;;;;;;3.42;0.43;;;10.60;84.10;;;;;;5091867;27;20130;-78
2023/04/03 10:36:33;;;;;;;5.35;0.60;;;10.70;86.30;;;;;;5094230;27;20137;-78
2023/04/03 10:39:09;;;;;;;3.38;0.77;;;10.70;85.60;;;;;;5109423;27;20047;-77
2023/04/03 10:41:43;;;;;;;3.67;0.80;;;10.60;82.40;;;;;;5110159;27;20119;-78
2023/04/03 10:44:37;;;;;;;4.38;0.60;;;10.80;82.40;;;;;;5110381;27;20524;-78
2023/04/03 10:47:36;;;;;;;2.33;0.47;;;10.60;80.50;;;;;;5126839;27;20051;-78
2023/04/03 10:50:26;;;;;;;2.00;0.73;;;10.60;79.20;;;;;;5071359;27;20087;-79
2023/04/03 10:52:57;;;;;;;1.45;0.60;;;10.60;78.00;;;;;;5110370;27;20039;-79
2023/04/03 10:55:26;;;;;;;3.28;0.60;;;10.70;78.90;;;;;;5108737;27;20082;-78
2023/04/03 10:57:56;;;;;;;1.77;0.57;;;10.70;77.30;;;;;;5110453;27;20046;-78
2023/04/03 11:00:39;;;;;;;1.85;0.40;;;10.70;76.50;;;;;;5108305;27;20079;-78
2023/04/03 11:03:28;;;;;;;1.27;0.38;;;10.80;75.80;;;;;;5088561;28;20491;-78
2023/04/03 11:05:55;;;;;;;1.30;0.45;;;10.80;74.10;;;;;;5107838;28;20032;-79
2023/04/03 11:08:34;;;;;;;2.22;0.47;;;10.90;74.80;;;;;;5087215;28;20043;-78
2023/04/03 11:11:09;;;;;;;3.15;0.60;;;11.00;72.70;;;;;;5106760;28;20063;-78
2023/04/03 11:13:55;;;;;;;3.03;0.68;;;11.00;69.10;;;;;;5106071;28;20440;-78
2023/04/03 11:16:27;;;;;;;3.00;0.65;;;11.00;67.90;;;;;;5105012;28;20123;-78
2023/04/03 11:19:23;;;;;;;1.95;0.43;;;10.90;69.80;;;;;;5106190;28;20051;-78
2023/04/03 11:22:05;;;;;;;4.78;0.52;;;11.00;66.70;;;;;;5104748;28;20562;-79
2023/04/03 11:24:36;;;;;;;1.75;0.30;;;11.10;68.30;;;;;;5105223;28;20505;-78
2023/04/03 11:27:05;;;;;;;0.65;0.30;;;11.10;68.60;;;;;;5106162;28;20050;-81
2023/04/03 11:29:40;;;;;;;6.32;0.75;;;11.10;68.30;;;;;;5104563;28;20058;-80
2023/04/03 11:32:08;;;;;;;2.25;0.52;;;11.10;66.90;;;;;;5106642;28;20120;-79
2023/04/03 11:34:41;;;;;;;2.50;0.32;;;11.10;67.80;;;;;;5104213;28;20043;-78
2023/04/03 11:37:37;;;;;;;4.05;0.50;;;11.20;66.80;;;;;;5107115;28;20091;-78
2023/04/03 11:40:15;;;;;;;2.92;1.08;;;11.30;66.40;;;;;;5106215;28;20125;-79
2023/04/03 11:42:45;;;;;;;4.43;0.70;;;11.30;67.50;;;;;;5104594;28;20047;-79
2023/04/03 11:45:29;;;;;;;6.20;0.68;;;11.40;67.90;;;;;;5106698;28;20048;-78
2023/04/03 11:47:57;;;;;;;5.47;1.10;;;11.40;65.10;;;;;;5088004;28;20043;-79
2023/04/03 11:50:39;;;;;;;0.77;0.30;;;11.40;66.50;;;;;;5104643;28;20039;-79
2023/04/03 11:53:08;;;;;;;1.00;0.45;;;11.50;64.50;;;;;;5088587;28;20139;-78
2023/04/03 11:55:35;;;;;;;1.23;0.40;;;11.50;67.00;;;;;;5103991;28;20040;-79
2023/04/03 11:58:20;;;;;;;2.17;0.52;;;11.60;66.60;;;;;;5105811;28;20035;-78
2023/04/03 12:00:55;;;;;;;2.92;0.50;;;11.70;65.40;;;;;;5105055;28;20043;-78
2023/04/03 12:03:27;;;;;;;2.33;0.85;;;11.70;66.20;;;;;;5104346;28;20529;-78
2023/04/03 12:06:06;;;;;;;5.63;0.73;;;11.70;65.70;;;;;;5105492;28;20558;-80
2023/04/03 12:08:45;;;;;;;4.13;0.40;;;11.90;66.10;;;;;;5103947;28;20047;-82
2023/04/03 12:11:13;;;;;;;4.47;0.73;;;11.90;65.50;;;;;;5105905;28;20383;-79
2023/04/03 12:13:40;;;;;;;3.22;0.47;;;12.00;66.00;;;;;;5104909;28;20367;-79
2023/04/03 12:16:19;;;;;;;1.63;0.40;;;12.30;64.90;;;;;;5104499;28;20048;-78
2023/04/03 12:19:22;;;;;;;4.25;0.43;;;12.00;64.20;;;;;;5105416;28;20089;-79
2023/04/03 12:21:56;;;;;;;1.33;0.60;;;12.00;62.90;;;;;;5086077;28;20059;-79
2023/04/03 12:24:29;;;;;;;1.77;0.70;;;12.10;64.20;;;;;;5104466;28;20542;-79
2023/04/03 12:27:29;;;;;;;1.73;0.45;;;12.10;63.60;;;;;;5088141;28;20055;-79
2023/04/03 12:30:04;;;;;;;2.33;0.43;;;12.10;60.60;;;;;;5103843;28;20523;-79
2023/04/03 12:33:06;;;;;;;2.13;0.43;;;12.00;62.10;;;;;;5105209;28;20490;-78
2023/04/03 12:35:37;;;;;;;2.67;0.40;;;12.10;61.80;;;;;;5086985;28;20070;-78
2023/04/03 12:38:30;;;;;;;5.75;0.40;;;12.10;61.30;;;;;;5103949;28;20050;-79
2023/04/03 12:41:13;;;;;;;1.63;0.43;;;12.20;60.90;;;;;;5105731;28;20071;-79
2023/04/03 12:43:54;;;;;;;1.02;0.40;;;12.30;58.90;;;;;;5104312;28;20052;-78
2023/04/03 12:46:24;;;;;;;2.13;0.63;;;12.40;60.90;;;;;;5104142;28;20036;-78
2023/04/03 12:48:58;;;;;;;3.05;0.45;;;12.50;60.40;;;;;;5105571;28;20051;-78
2023/04/03 12:51:42;;;;;;;3.25;0.50;;;12.50;60.30;;;;;;5103684;28;20048;-79
2023/04/03 12:54:35;;;;;;;1.20;0.55;;;12.60;58.30;;;;;;5104972;28;20113;-79
2023/04/03 12:57:21;;;;;;;1.30;0.30;;;12.60;58.50;;;;;;5105159;28;20095;-78
2023/04/03 12:59:50;;;;;;;2.78;0.30;;;12.50;58.60;;;;;;5086411;28;20083;-78
2023/04/03 13:02:19;;;;;;;2.88;0.40;;;12.40;59.70;;;;;;5105702;28;20092;-79
2023/04/03 13:04:46;;;;;;;4.88;0.63;;;12.40;58.40;;;;;;5103908;28;20104;-79
2023/04/03 13:07:43;;;;;;;1.92;0.40;;;12.40;59.60;;;;;;5087778;28;20412;-79
2023/04/03 13:10:08;;;;;;;1.73;0.90;;;12.50;57.60;;;;;;5085096;28;20063;-79
2023/04/03 13:12:44;;;;;;;3.92;0.70;;;12.50;59.80;;;;;;5103463;28;20044;-79